sensor_id;sensor_type;location;lat;lon;timestamp;temperature;humidity
75161;DHT22;67232;50.096;8.716;2023-03-17T00:01:52;9.20;65.00
75161;DHT22;67232;50.096;8.716;2023-03-17T00:04:25;9.10;65.30
75161;DHT22;67232;50.096;8.716;2023-03-17T00:06:55;9.20;65.10
75161;DHT22;67232;50.096;8.716;2023-03-17T00:09:24;9.20;65.30
75161;DHT22;67232;50.096;8.716;2023-03-17T00:11:52;9.10;65.30
75161;DHT22;67232;50.096;8.716;2023-03-17T00:14:20;9.30;65.10
75161;DHT22;67232;50.096;8.716;2023-03-17T00:16:49;9.40;65.00
75161;DHT22;67232;50.096;8.716;2023-03-17T00:19:29;9.40;64.70
75161;DHT22;67232;50.096;8.716;2023-03-17T00:21:58;9.20;65.00
75161;DHT22;67232;50.096;8.716;2023-03-17T00:24:28;9.30;64.90
75161;DHT22;67232;50.096;8.716;2023-03-17T00:26:54;8.90;65.70
75161;DHT22;67232;50.096;8.716;2023-03-17T00:29:22;8.90;65.90
75161;DHT22;67232;50.096;8.716;2023-03-17T00:31:48;9.00;65.50
75161;DHT22;67232;50.096;8.716;2023-03-17T00:34:17;9.10;65.30
75161;DHT22;67232;50.096;8.716;2023-03-17T00:36:49;8.90;65.70
75161;DHT22;67232;50.096;8.716;2023-03-17T00:39:17;9.00;65.70
75161;DHT22;67232;50.096;8.716;2023-03-17T00:41:45;8.90;66.00
75161;DHT22;67232;50.096;8.716;2023-03-17T00:44:14;9.20;65.40
75161;DHT22;67232;50.096;8.716;2023-03-17T00:46:40;9.40;64.60
75161;DHT22;67232;50.096;8.716;2023-03-17T00:49:18;9.20;64.90
75161;DHT22;67232;50.096;8.716;2023-03-17T00:51:47;9.10;65.00
75161;DHT22;67232;50.096;8.716;2023-03-17T00:54:17;9.00;65.30
75161;DHT22;67232;50.096;8.716;2023-03-17T00:56:43;9.00;65.30
75161;DHT22;67232;50.096;8.716;2023-03-17T00:59:32;9.20;65.20
75161;DHT22;67232;50.096;8.716;2023-03-17T01:02:02;9.10;64.90
75161;DHT22;67232;50.096;8.716;2023-03-17T01:04:27;9.10;65.00
75161;DHT22;67232;50.096;8.716;2023-03-17T01:06:53;8.80;65.50
75161;DHT22;67232;50.096;8.716;2023-03-17T01:09:27;8.90;65.30
75161;DHT22;67232;50.096;8.716;2023-03-17T01:11:57;8.80;65.50
75161;DHT22;67232;50.096;8.716;2023-03-17T01:14:25;8.80;65.70
75161;DHT22;67232;50.096;8.716;2023-03-17T01:16:53;9.00;65.50
75161;DHT22;67232;50.096;8.716;2023-03-17T01:19:23;9.10;65.30
75161;DHT22;67232;50.096;8.716;2023-03-17T01:21:50;9.40;64.70
75161;DHT22;67232;50.096;8.716;2023-03-17T01:24:18;9.40;64.70
75161;DHT22;67232;50.096;8.716;2023-03-17T01:26:48;9.20;64.90
75161;DHT22;67232;50.096;8.716;2023-03-17T01:29:15;9.40;65.00
75161;DHT22;67232;50.096;8.716;2023-03-17T01:31:47;9.40;64.60
75161;DHT22;67232;50.096;8.716;2023-03-17T01:34:17;9.50;64.30
75161;DHT22;67232;50.096;8.716;2023-03-17T01:36:45;9.50;64.60
75161;DHT22;67232;50.096;8.716;2023-03-17T01:39:16;9.40;64.60
75161;DHT22;67232;50.096;8.716;2023-03-17T01:41:42;9.50;64.40
75161;DHT22;67232;50.096;8.716;2023-03-17T01:44:16;9.40;64.70
75161;DHT22;67232;50.096;8.716;2023-03-17T01:46:45;9.40;65.30
75161;DHT22;67232;50.096;8.716;2023-03-17T01:52:12;9.40;65.10
75161;DHT22;67232;50.096;8.716;2023-03-17T01:57:39;9.40;64.80
75161;DHT22;67232;50.096;8.716;2023-03-17T02:00:12;9.20;64.90
75161;DHT22;67232;50.096;8.716;2023-03-17T02:02:43;9.20;65.20
75161;DHT22;67232;50.096;8.716;2023-03-17T02:05:13;9.30;65.20
75161;DHT22;67232;50.096;8.716;2023-03-17T02:07:45;9.40;65.00
75161;DHT22;67232;50.096;8.716;2023-03-17T02:10:17;9.40;64.90
75161;DHT22;67232;50.096;8.716;2023-03-17T02:12:49;9.40;64.50
75161;DHT22;67232;50.096;8.716;2023-03-17T02:15:15;9.20;65.00
75161;DHT22;67232;50.096;8.716;2023-03-17T02:17:41;9.30;64.80
75161;DHT22;67232;50.096;8.716;2023-03-17T02:22:48;9.20;65.20
75161;DHT22;67232;50.096;8.716;2023-03-17T02:25:17;9.10;65.60
75161;DHT22;67232;50.096;8.716;2023-03-17T02:27:50;9.10;65.30
75161;DHT22;67232;50.096;8.716;2023-03-17T02:30:20;9.10;65.40
75161;DHT22;67232;50.096;8.716;2023-03-17T02:32:46;9.00;65.50
75161;DHT22;67232;50.096;8.716;2023-03-17T02:35:12;9.20;65.10
75161;DHT22;67232;50.096;8.716;2023-03-17T02:37:40;9.30;64.80
75161;DHT22;67232;50.096;8.716;2023-03-17T02:40:08;9.30;64.80
75161;DHT22;67232;50.096;8.716;2023-03-17T02:42:40;9.10;65.10
75161;DHT22;67232;50.096;8.716;2023-03-17T02:45:06;8.60;65.60
75161;DHT22;67232;50.096;8.716;2023-03-17T02:47:35;8.80;65.70
75161;DHT22;67232;50.096;8.716;2023-03-17T02:50:01;8.90;65.70
75161;DHT22;67232;50.096;8.716;2023-03-17T02:52:29;8.90;65.80
75161;DHT22;67232;50.096;8.716;2023-03-17T02:54:57;9.00;65.40
75161;DHT22;67232;50.096;8.716;2023-03-17T02:57:25;8.80;65.70
75161;DHT22;67232;50.096;8.716;2023-03-17T02:59:53;8.50;66.50
75161;DHT22;67232;50.096;8.716;2023-03-17T03:02:18;8.60;66.20
75161;DHT22;67232;50.096;8.716;2023-03-17T03:04:46;8.60;66.20
75161;DHT22;67232;50.096;8.716;2023-03-17T03:07:14;8.50;66.20
75161;DHT22;67232;50.096;8.716;2023-03-17T03:09:46;8.60;66.00
75161;DHT22;67232;50.096;8.716;2023-03-17T03:12:12;8.40;66.60
75161;DHT22;67232;50.096;8.716;2023-03-17T03:14:43;8.30;66.70
75161;DHT22;67232;50.096;8.716;2023-03-17T03:17:12;8.30;66.70
75161;DHT22;67232;50.096;8.716;2023-03-17T03:19:37;8.50;66.60
75161;DHT22;67232;50.096;8.716;2023-03-17T03:22:05;8.50;66.50
75161;DHT22;67232;50.096;8.716;2023-03-17T03:24:33;8.70;66.20
75161;DHT22;67232;50.096;8.716;2023-03-17T03:27:03;8.60;66.20
75161;DHT22;67232;50.096;8.716;2023-03-17T03:29:29;8.70;66.30
75161;DHT22;67232;50.096;8.716;2023-03-17T03:31:57;8.90;65.60
75161;DHT22;67232;50.096;8.716;2023-03-17T03:34:25;8.80;65.70
75161;DHT22;67232;50.096;8.716;2023-03-17T03:36:53;8.80;66.10
75161;DHT22;67232;50.096;8.716;2023-03-17T03:39:18;8.70;66.00
75161;DHT22;67232;50.096;8.716;2023-03-17T03:41:44;8.80;65.70
75161;DHT22;67232;50.096;8.716;2023-03-17T03:44:09;8.50;65.90
75161;DHT22;67232;50.096;8.716;2023-03-17T03:46:38;8.50;66.30
75161;DHT22;67232;50.096;8.716;2023-03-17T03:49:05;8.50;66.20
75161;DHT22;67232;50.096;8.716;2023-03-17T03:51:34;8.40;65.90
75161;DHT22;67232;50.096;8.716;2023-03-17T03:54:01;8.50;66.50
75161;DHT22;67232;50.096;8.716;2023-03-17T03:56:27;8.50;66.30
75161;DHT22;67232;50.096;8.716;2023-03-17T03:58:52;8.60;66.30
75161;DHT22;67232;50.096;8.716;2023-03-17T04:01:18;8.70;66.10
75161;DHT22;67232;50.096;8.716;2023-03-17T04:03:48;8.70;65.60
75161;DHT22;67232;50.096;8.716;2023-03-17T04:06:14;8.80;65.90
75161;DHT22;67232;50.096;8.716;2023-03-17T04:08:40;8.80;65.50
75161;DHT22;67232;50.096;8.716;2023-03-17T04:11:08;8.90;65.50
75161;DHT22;67232;50.096;8.716;2023-03-17T04:13:36;8.80;65.70
75161;DHT22;67232;50.096;8.716;2023-03-17T04:16:02;8.80;65.60
75161;DHT22;67232;50.096;8.716;2023-03-17T04:18:28;8.70;65.50
75161;DHT22;67232;50.096;8.716;2023-03-17T04:20:56;8.70;66.10
75161;DHT22;67232;50.096;8.716;2023-03-17T04:23:26;8.60;66.30
75161;DHT22;67232;50.096;8.716;2023-03-17T04:25:58;8.70;66.00
75161;DHT22;67232;50.096;8.716;2023-03-17T04:28:23;8.80;65.90
75161;DHT22;67232;50.096;8.716;2023-03-17T04:30:51;8.60;66.40
75161;DHT22;67232;50.096;8.716;2023-03-17T04:33:21;8.50;66.50
75161;DHT22;67232;50.096;8.716;2023-03-17T04:35:49;8.40;66.90
75161;DHT22;67232;50.096;8.716;2023-03-17T04:38:15;8.40;66.80
75161;DHT22;67232;50.096;8.716;2023-03-17T04:40:43;8.50;66.40
75161;DHT22;67232;50.096;8.716;2023-03-17T04:43:08;8.40;66.40
75161;DHT22;67232;50.096;8.716;2023-03-17T04:45:36;8.40;66.50
75161;DHT22;67232;50.096;8.716;2023-03-17T04:48:04;8.50;66.30
75161;DHT22;67232;50.096;8.716;2023-03-17T04:50:30;8.40;66.20
75161;DHT22;67232;50.096;8.716;2023-03-17T04:52:59;8.30;66.70
75161;DHT22;67232;50.096;8.716;2023-03-17T04:55:25;8.20;67.20
75161;DHT22;67232;50.096;8.716;2023-03-17T04:57:54;8.40;67.20
75161;DHT22;67232;50.096;8.716;2023-03-17T05:00:19;8.40;66.70
75161;DHT22;67232;50.096;8.716;2023-03-17T05:02:47;8.40;66.80
75161;DHT22;67232;50.096;8.716;2023-03-17T05:05:15;8.40;66.60
75161;DHT22;67232;50.096;8.716;2023-03-17T05:07:41;8.60;66.60
75161;DHT22;67232;50.096;8.716;2023-03-17T05:10:09;8.40;66.80
75161;DHT22;67232;50.096;8.716;2023-03-17T05:12:35;8.40;67.20
75161;DHT22;67232;50.096;8.716;2023-03-17T05:15:04;8.40;67.20
75161;DHT22;67232;50.096;8.716;2023-03-17T05:17:29;8.20;67.60
75161;DHT22;67232;50.096;8.716;2023-03-17T05:19:55;8.10;67.90
75161;DHT22;67232;50.096;8.716;2023-03-17T05:22:23;8.00;68.00
75161;DHT22;67232;50.096;8.716;2023-03-17T05:24:48;8.00;67.70
75161;DHT22;67232;50.096;8.716;2023-03-17T05:27:14;8.00;67.70
75161;DHT22;67232;50.096;8.716;2023-03-17T05:29:42;8.00;67.70
75161;DHT22;67232;50.096;8.716;2023-03-17T05:32:07;8.10;67.70
75161;DHT22;67232;50.096;8.716;2023-03-17T05:34:33;8.00;68.10
75161;DHT22;67232;50.096;8.716;2023-03-17T05:36:59;8.30;68.30
75161;DHT22;67232;50.096;8.716;2023-03-17T05:39:25;8.10;68.10
75161;DHT22;67232;50.096;8.716;2023-03-17T05:41:50;8.20;68.50
75161;DHT22;67232;50.096;8.716;2023-03-17T05:44:16;8.20;68.30
75161;DHT22;67232;50.096;8.716;2023-03-17T05:46:47;8.30;68.10
75161;DHT22;67232;50.096;8.716;2023-03-17T05:49:13;8.10;68.60
75161;DHT22;67232;50.096;8.716;2023-03-17T05:51:38;8.20;68.70
75161;DHT22;67232;50.096;8.716;2023-03-17T05:54:04;8.30;68.40
75161;DHT22;67232;50.096;8.716;2023-03-17T05:56:30;7.90;68.80
75161;DHT22;67232;50.096;8.716;2023-03-17T05:59:01;7.80;69.30
75161;DHT22;67232;50.096;8.716;2023-03-17T06:01:30;7.90;69.00
75161;DHT22;67232;50.096;8.716;2023-03-17T06:03:56;7.90;69.00
75161;DHT22;67232;50.096;8.716;2023-03-17T06:06:24;7.80;69.60
75161;DHT22;67232;50.096;8.716;2023-03-17T06:08:50;7.70;69.20
75161;DHT22;67232;50.096;8.716;2023-03-17T06:11:18;7.50;69.30
75161;DHT22;67232;50.096;8.716;2023-03-17T06:13:47;7.40;70.20
75161;DHT22;67232;50.096;8.716;2023-03-17T06:16:12;7.40;69.70
75161;DHT22;67232;50.096;8.716;2023-03-17T06:18:40;7.30;70.00
75161;DHT22;67232;50.096;8.716;2023-03-17T06:21:06;7.40;70.00
75161;DHT22;67232;50.096;8.716;2023-03-17T06:23:32;7.80;69.50
75161;DHT22;67232;50.096;8.716;2023-03-17T06:25:57;8.00;69.20
75161;DHT22;67232;50.096;8.716;2023-03-17T06:28:25;8.20;68.60
75161;DHT22;67232;50.096;8.716;2023-03-17T06:30:51;8.20;68.50
75161;DHT22;67232;50.096;8.716;2023-03-17T06:33:19;8.40;68.10
75161;DHT22;67232;50.096;8.716;2023-03-17T06:35:44;8.50;68.20
75161;DHT22;67232;50.096;8.716;2023-03-17T06:38:10;8.60;67.90
75161;DHT22;67232;50.096;8.716;2023-03-17T06:40:35;8.70;67.30
75161;DHT22;67232;50.096;8.716;2023-03-17T06:43:01;8.80;67.20
75161;DHT22;67232;50.096;8.716;2023-03-17T06:45:30;9.00;66.20
75161;DHT22;67232;50.096;8.716;2023-03-17T06:47:56;9.10;66.00
75161;DHT22;67232;50.096;8.716;2023-03-17T06:50:22;9.10;65.80
75161;DHT22;67232;50.096;8.716;2023-03-17T06:52:48;9.00;66.00
75161;DHT22;67232;50.096;8.716;2023-03-17T06:55:13;9.10;65.60
75161;DHT22;67232;50.096;8.716;2023-03-17T06:57:39;9.00;65.90
75161;DHT22;67232;50.096;8.716;2023-03-17T07:00:05;8.70;66.00
75161;DHT22;67232;50.096;8.716;2023-03-17T07:02:32;8.70;66.60
75161;DHT22;67232;50.096;8.716;2023-03-17T07:04:58;9.00;66.20
75161;DHT22;67232;50.096;8.716;2023-03-17T07:07:25;9.10;65.90
75161;DHT22;67232;50.096;8.716;2023-03-17T07:09:50;9.20;66.20
75161;DHT22;67232;50.096;8.716;2023-03-17T07:12:19;9.30;65.60
75161;DHT22;67232;50.096;8.716;2023-03-17T07:14:47;9.60;65.00
75161;DHT22;67232;50.096;8.716;2023-03-17T07:17:13;9.50;64.80
75161;DHT22;67232;50.096;8.716;2023-03-17T07:19:40;9.60;64.80
75161;DHT22;67232;50.096;8.716;2023-03-17T07:22:06;9.60;64.80
75161;DHT22;67232;50.096;8.716;2023-03-17T07:24:37;9.70;64.60
75161;DHT22;67232;50.096;8.716;2023-03-17T07:27:03;9.90;64.40
75161;DHT22;67232;50.096;8.716;2023-03-17T07:29:31;10.00;64.10
75161;DHT22;67232;50.096;8.716;2023-03-17T07:31:59;10.00;64.10
75161;DHT22;67232;50.096;8.716;2023-03-17T07:34:25;10.00;64.30
75161;DHT22;67232;50.096;8.716;2023-03-17T07:36:53;10.30;63.70
75161;DHT22;67232;50.096;8.716;2023-03-17T07:39:19;10.40;63.60
75161;DHT22;67232;50.096;8.716;2023-03-17T07:41:45;10.40;63.30
75161;DHT22;67232;50.096;8.716;2023-03-17T07:44:12;10.60;63.30
75161;DHT22;67232;50.096;8.716;2023-03-17T07:46:38;10.70;62.90
75161;DHT22;67232;50.096;8.716;2023-03-17T07:49:03;10.50;62.80
75161;DHT22;67232;50.096;8.716;2023-03-17T07:51:29;10.30;63.20
75161;DHT22;67232;50.096;8.716;2023-03-17T07:53:54;10.40;63.40
75161;DHT22;67232;50.096;8.716;2023-03-17T07:56:29;10.30;63.50
75161;DHT22;67232;50.096;8.716;2023-03-17T07:58:58;10.60;63.20
75161;DHT22;67232;50.096;8.716;2023-03-17T08:01:25;10.70;62.80
75161;DHT22;67232;50.096;8.716;2023-03-17T08:03:51;11.00;62.90
75161;DHT22;67232;50.096;8.716;2023-03-17T08:06:17;11.00;61.70
75161;DHT22;67232;50.096;8.716;2023-03-17T08:08:43;11.10;61.70
75161;DHT22;67232;50.096;8.716;2023-03-17T08:11:09;11.50;61.30
75161;DHT22;67232;50.096;8.716;2023-03-17T08:13:39;11.30;60.70
75161;DHT22;67232;50.096;8.716;2023-03-17T08:16:08;11.00;61.30
75161;DHT22;67232;50.096;8.716;2023-03-17T08:18:36;11.20;61.30
75161;DHT22;67232;50.096;8.716;2023-03-17T08:21:02;11.50;61.20
75161;DHT22;67232;50.096;8.716;2023-03-17T08:23:28;12.10;60.20
75161;DHT22;67232;50.096;8.716;2023-03-17T08:26:00;12.30;60.10
75161;DHT22;67232;50.096;8.716;2023-03-17T08:28:30;12.20;60.30
75161;DHT22;67232;50.096;8.716;2023-03-17T08:31:22;12.20;60.20
75161;DHT22;67232;50.096;8.716;2023-03-17T08:33:50;12.60;59.50
75161;DHT22;67232;50.096;8.716;2023-03-17T08:36:19;12.80;58.20
75161;DHT22;67232;50.096;8.716;2023-03-17T08:38:46;12.90;58.50
75161;DHT22;67232;50.096;8.716;2023-03-17T08:41:15;13.00;57.90
75161;DHT22;67232;50.096;8.716;2023-03-17T08:43:42;13.30;57.60
75161;DHT22;67232;50.096;8.716;2023-03-17T08:48:42;13.30;57.20
75161;DHT22;67232;50.096;8.716;2023-03-17T08:51:07;13.30;57.40
75161;DHT22;67232;50.096;8.716;2023-03-17T08:53:38;13.50;57.20
75161;DHT22;67232;50.096;8.716;2023-03-17T08:56:04;13.60;57.40
75161;DHT22;67232;50.096;8.716;2023-03-17T08:58:34;13.80;57.50
75161;DHT22;67232;50.096;8.716;2023-03-17T09:01:01;14.10;56.70
75161;DHT22;67232;50.096;8.716;2023-03-17T09:03:29;14.40;56.30
75161;DHT22;67232;50.096;8.716;2023-03-17T09:05:57;14.20;55.30
75161;DHT22;67232;50.096;8.716;2023-03-17T09:08:23;14.10;55.00
75161;DHT22;67232;50.096;8.716;2023-03-17T09:10:49;14.20;55.20
75161;DHT22;67232;50.096;8.716;2023-03-17T09:13:16;14.10;55.00
75161;DHT22;67232;50.096;8.716;2023-03-17T09:15:42;14.40;54.90
75161;DHT22;67232;50.096;8.716;2023-03-17T09:18:10;14.80;54.40
75161;DHT22;67232;50.096;8.716;2023-03-17T09:20:35;15.00;53.70
75161;DHT22;67232;50.096;8.716;2023-03-17T09:23:05;15.20;53.50
75161;DHT22;67232;50.096;8.716;2023-03-17T09:25:36;15.10;54.20
75161;DHT22;67232;50.096;8.716;2023-03-17T09:28:05;15.40;52.40
75161;DHT22;67232;50.096;8.716;2023-03-17T09:30:34;15.50;52.60
75161;DHT22;67232;50.096;8.716;2023-03-17T09:32:59;15.60;52.70
75161;DHT22;67232;50.096;8.716;2023-03-17T09:35:27;15.80;51.90
75161;DHT22;67232;50.096;8.716;2023-03-17T09:37:53;15.40;51.90
75161;DHT22;67232;50.096;8.716;2023-03-17T09:40:31;15.10;53.80
75161;DHT22;67232;50.096;8.716;2023-03-17T09:45:42;15.00;54.20
75161;DHT22;67232;50.096;8.716;2023-03-17T09:48:43;14.80;53.90
75161;DHT22;67232;50.096;8.716;2023-03-17T09:51:16;15.00;54.70
75161;DHT22;67232;50.096;8.716;2023-03-17T09:53:58;14.90;54.30
75161;DHT22;67232;50.096;8.716;2023-03-17T09:56:27;15.10;54.50
75161;DHT22;67232;50.096;8.716;2023-03-17T09:59:17;14.90;54.30
75161;DHT22;67232;50.096;8.716;2023-03-17T10:01:51;15.10;54.50
75161;DHT22;67232;50.096;8.716;2023-03-17T10:04:17;14.80;54.90
75161;DHT22;67232;50.096;8.716;2023-03-17T10:06:43;15.00;54.40
75161;DHT22;67232;50.096;8.716;2023-03-17T10:09:22;15.40;52.90
75161;DHT22;67232;50.096;8.716;2023-03-17T10:17:25;15.60;53.20
75161;DHT22;67232;50.096;8.716;2023-03-17T10:22:42;15.50;52.90
75161;DHT22;67232;50.096;8.716;2023-03-17T10:25:14;15.80;52.90
75161;DHT22;67232;50.096;8.716;2023-03-17T10:27:40;15.60;52.40
75161;DHT22;67232;50.096;8.716;2023-03-17T10:30:16;15.40;53.30
75161;DHT22;67232;50.096;8.716;2023-03-17T10:32:44;15.20;54.30
75161;DHT22;67232;50.096;8.716;2023-03-17T10:35:11;15.50;52.40
75161;DHT22;67232;50.096;8.716;2023-03-17T10:37:41;15.60;52.40
75161;DHT22;67232;50.096;8.716;2023-03-17T10:40:18;15.70;52.40
75161;DHT22;67232;50.096;8.716;2023-03-17T10:42:52;15.70;52.40
75161;DHT22;67232;50.096;8.716;2023-03-17T10:45:33;15.80;52.00
75161;DHT22;67232;50.096;8.716;2023-03-17T10:48:01;16.30;51.60
75161;DHT22;67232;50.096;8.716;2023-03-17T10:50:32;16.60;51.30
75161;DHT22;67232;50.096;8.716;2023-03-17T10:53:20;16.80;50.90
75161;DHT22;67232;50.096;8.716;2023-03-17T10:55:50;16.90;51.70
75161;DHT22;67232;50.096;8.716;2023-03-17T10:58:51;17.60;50.50
75161;DHT22;67232;50.096;8.716;2023-03-17T11:03:53;18.40;48.20
75161;DHT22;67232;50.096;8.716;2023-03-17T11:06:19;18.60;47.40
75161;DHT22;67232;50.096;8.716;2023-03-17T11:08:52;18.80;47.60
75161;DHT22;67232;50.096;8.716;2023-03-17T11:11:27;18.90;47.10
75161;DHT22;67232;50.096;8.716;2023-03-17T11:16:26;19.00;46.90
75161;DHT22;67232;50.096;8.716;2023-03-17T11:18:57;18.70;47.10
75161;DHT22;67232;50.096;8.716;2023-03-17T11:21:37;19.20;46.90
75161;DHT22;67232;50.096;8.716;2023-03-17T11:24:33;19.20;46.30
75161;DHT22;67232;50.096;8.716;2023-03-17T11:38:01;19.60;45.80
75161;DHT22;67232;50.096;8.716;2023-03-17T11:45:56;19.50;46.50
75161;DHT22;67232;50.096;8.716;2023-03-17T11:55:13;19.40;46.00
75161;DHT22;67232;50.096;8.716;2023-03-17T11:57:51;19.50;45.50
75161;DHT22;67232;50.096;8.716;2023-03-17T12:05:24;20.30;44.60
75161;DHT22;67232;50.096;8.716;2023-03-17T12:07:55;20.20;44.80
75161;DHT22;67232;50.096;8.716;2023-03-17T12:10:32;20.60;44.60
75161;DHT22;67232;50.096;8.716;2023-03-17T12:13:15;20.60;43.80
75161;DHT22;67232;50.096;8.716;2023-03-17T12:15:47;20.40;45.30
75161;DHT22;67232;50.096;8.716;2023-03-17T12:18:29;20.30;45.30
75161;DHT22;67232;50.096;8.716;2023-03-17T12:20:59;20.30;45.60
75161;DHT22;67232;50.096;8.716;2023-03-17T12:23:46;19.90;46.30
75161;DHT22;67232;50.096;8.716;2023-03-17T12:34:21;19.10;48.00
75161;DHT22;67232;50.096;8.716;2023-03-17T12:36:51;18.70;48.20
75161;DHT22;67232;50.096;8.716;2023-03-17T12:39:29;18.80;48.90
75161;DHT22;67232;50.096;8.716;2023-03-17T12:53:24;17.70;50.50
75161;DHT22;67232;50.096;8.716;2023-03-17T12:55:58;17.50;50.90
75161;DHT22;67232;50.096;8.716;2023-03-17T12:58:31;17.30;51.00
75161;DHT22;67232;50.096;8.716;2023-03-17T13:03:32;17.30;51.30
75161;DHT22;67232;50.096;8.716;2023-03-17T13:06:05;17.30;51.30
75161;DHT22;67232;50.096;8.716;2023-03-17T13:08:43;17.10;51.20
75161;DHT22;67232;50.096;8.716;2023-03-17T13:11:27;16.80;51.00
75161;DHT22;67232;50.096;8.716;2023-03-17T13:14:42;16.90;51.30
75161;DHT22;67232;50.096;8.716;2023-03-17T13:25:34;16.90;52.20
75161;DHT22;67232;50.096;8.716;2023-03-17T13:35:40;16.80;52.60
75161;DHT22;67232;50.096;8.716;2023-03-17T13:38:33;16.70;53.10
75161;DHT22;67232;50.096;8.716;2023-03-17T13:44:10;16.70;53.00
75161;DHT22;67232;50.096;8.716;2023-03-17T13:56:56;17.10;52.70
75161;DHT22;67232;50.096;8.716;2023-03-17T14:00:00;16.90;53.00
75161;DHT22;67232;50.096;8.716;2023-03-17T14:02:29;17.00;53.00
75161;DHT22;67232;50.096;8.716;2023-03-17T14:05:04;17.00;52.30
75161;DHT22;67232;50.096;8.716;2023-03-17T14:07:45;17.00;52.50
75161;DHT22;67232;50.096;8.716;2023-03-17T14:10:25;17.10;52.40
75161;DHT22;67232;50.096;8.716;2023-03-17T14:13:02;17.00;52.90
75161;DHT22;67232;50.096;8.716;2023-03-17T14:18:35;17.10;52.60
75161;DHT22;67232;50.096;8.716;2023-03-17T14:21:04;17.00;52.70
75161;DHT22;67232;50.096;8.716;2023-03-17T14:23:33;16.90;52.60
75161;DHT22;67232;50.096;8.716;2023-03-17T14:26:01;17.10;52.30
75161;DHT22;67232;50.096;8.716;2023-03-17T14:28:30;17.00;52.50
75161;DHT22;67232;50.096;8.716;2023-03-17T14:31:00;17.00;52.90
75161;DHT22;67232;50.096;8.716;2023-03-17T14:35:58;17.00;52.80
75161;DHT22;67232;50.096;8.716;2023-03-17T14:41:15;17.10;52.20
75161;DHT22;67232;50.096;8.716;2023-03-17T14:43:42;17.10;52.50
75161;DHT22;67232;50.096;8.716;2023-03-17T14:46:24;17.10;52.20
75161;DHT22;67232;50.096;8.716;2023-03-17T14:49:02;17.10;53.60
75161;DHT22;67232;50.096;8.716;2023-03-17T14:51:36;17.20;53.50
75161;DHT22;67232;50.096;8.716;2023-03-17T14:54:15;17.10;53.80
75161;DHT22;67232;50.096;8.716;2023-03-17T14:56:51;16.90;53.90
75161;DHT22;67232;50.096;8.716;2023-03-17T15:01:59;17.00;54.90
75161;DHT22;67232;50.096;8.716;2023-03-17T15:04:32;16.90;54.70
75161;DHT22;67232;50.096;8.716;2023-03-17T15:07:03;16.80;54.50
75161;DHT22;67232;50.096;8.716;2023-03-17T15:14:43;16.80;55.20
75161;DHT22;67232;50.096;8.716;2023-03-17T15:17:18;16.90;55.00
75161;DHT22;67232;50.096;8.716;2023-03-17T15:19:51;16.90;55.00
75161;DHT22;67232;50.096;8.716;2023-03-17T15:22:27;16.80;55.40
75161;DHT22;67232;50.096;8.716;2023-03-17T15:27:53;16.60;55.50
75161;DHT22;67232;50.096;8.716;2023-03-17T15:30:18;16.60;55.40
75161;DHT22;67232;50.096;8.716;2023-03-17T15:32:50;16.60;55.70
75161;DHT22;67232;50.096;8.716;2023-03-17T15:35:16;16.70;55.70
75161;DHT22;67232;50.096;8.716;2023-03-17T15:37:42;16.70;55.70
75161;DHT22;67232;50.096;8.716;2023-03-17T15:40:08;16.60;55.90
75161;DHT22;67232;50.096;8.716;2023-03-17T15:42:36;16.50;56.10
75161;DHT22;67232;50.096;8.716;2023-03-17T15:45:03;16.50;56.00
75161;DHT22;67232;50.096;8.716;2023-03-17T15:47:31;16.60;55.90
75161;DHT22;67232;50.096;8.716;2023-03-17T15:50:19;16.60;55.70
75161;DHT22;67232;50.096;8.716;2023-03-17T15:52:51;16.50;55.90
75161;DHT22;67232;50.096;8.716;2023-03-17T15:55:27;16.50;55.90
75161;DHT22;67232;50.096;8.716;2023-03-17T15:57:58;16.50;56.00
75161;DHT22;67232;50.096;8.716;2023-03-17T16:00:27;16.50;56.20
75161;DHT22;67232;50.096;8.716;2023-03-17T16:02:56;16.50;56.30
75161;DHT22;67232;50.096;8.716;2023-03-17T16:05:30;16.50;56.20
75161;DHT22;67232;50.096;8.716;2023-03-17T16:07:56;16.50;56.70
75161;DHT22;67232;50.096;8.716;2023-03-17T16:10:30;16.50;56.90
75161;DHT22;67232;50.096;8.716;2023-03-17T16:12:56;16.50;57.00
75161;DHT22;67232;50.096;8.716;2023-03-17T16:15:29;16.50;56.60
75161;DHT22;67232;50.096;8.716;2023-03-17T16:18:03;16.50;56.80
75161;DHT22;67232;50.096;8.716;2023-03-17T16:23:17;16.40;57.00
75161;DHT22;67232;50.096;8.716;2023-03-17T16:25:44;16.40;57.30
75161;DHT22;67232;50.096;8.716;2023-03-17T16:28:26;16.30;57.70
75161;DHT22;67232;50.096;8.716;2023-03-17T16:30:53;16.30;57.90
75161;DHT22;67232;50.096;8.716;2023-03-17T16:33:39;16.30;57.80
75161;DHT22;67232;50.096;8.716;2023-03-17T16:36:05;16.30;57.90
75161;DHT22;67232;50.096;8.716;2023-03-17T16:38:32;16.40;58.00
75161;DHT22;67232;50.096;8.716;2023-03-17T16:41:00;16.40;58.10
75161;DHT22;67232;50.096;8.716;2023-03-17T16:43:31;16.40;58.00
75161;DHT22;67232;50.096;8.716;2023-03-17T16:45:59;16.40;57.90
75161;DHT22;67232;50.096;8.716;2023-03-17T16:48:29;16.40;57.80
75161;DHT22;67232;50.096;8.716;2023-03-17T16:50:55;16.40;57.60
75161;DHT22;67232;50.096;8.716;2023-03-17T16:53:21;16.30;57.30
75161;DHT22;67232;50.096;8.716;2023-03-17T16:55:48;16.30;57.20
75161;DHT22;67232;50.096;8.716;2023-03-17T17:00:44;16.20;57.40
75161;DHT22;67232;50.096;8.716;2023-03-17T17:03:10;16.20;58.30
75161;DHT22;67232;50.096;8.716;2023-03-17T17:05:38;16.20;58.50
75161;DHT22;67232;50.096;8.716;2023-03-17T17:08:04;16.20;58.00
75161;DHT22;67232;50.096;8.716;2023-03-17T17:10:31;16.20;58.00
75161;DHT22;67232;50.096;8.716;2023-03-17T17:12:57;16.10;57.80
75161;DHT22;67232;50.096;8.716;2023-03-17T17:15:25;16.10;58.50
75161;DHT22;67232;50.096;8.716;2023-03-17T17:17:55;16.00;59.40
75161;DHT22;67232;50.096;8.716;2023-03-17T17:20:27;15.90;60.20
75161;DHT22;67232;50.096;8.716;2023-03-17T17:22:54;15.90;60.60
75161;DHT22;67232;50.096;8.716;2023-03-17T17:25:19;15.90;60.60
75161;DHT22;67232;50.096;8.716;2023-03-17T17:27:47;15.90;60.50
75161;DHT22;67232;50.096;8.716;2023-03-17T17:30:19;15.80;60.40
75161;DHT22;67232;50.096;8.716;2023-03-17T17:32:45;15.80;60.90
75161;DHT22;67232;50.096;8.716;2023-03-17T17:35:12;15.80;60.50
75161;DHT22;67232;50.096;8.716;2023-03-17T17:37:38;15.70;61.40
75161;DHT22;67232;50.096;8.716;2023-03-17T17:40:09;15.70;62.10
75161;DHT22;67232;50.096;8.716;2023-03-17T17:42:36;15.60;61.60
75161;DHT22;67232;50.096;8.716;2023-03-17T17:45:04;15.60;61.70
75161;DHT22;67232;50.096;8.716;2023-03-17T17:47:35;15.50;61.50
75161;DHT22;67232;50.096;8.716;2023-03-17T17:50:01;15.60;61.80
75161;DHT22;67232;50.096;8.716;2023-03-17T17:52:26;15.50;62.00
75161;DHT22;67232;50.096;8.716;2023-03-17T17:54:52;15.40;61.80
75161;DHT22;67232;50.096;8.716;2023-03-17T17:57:22;15.40;62.10
75161;DHT22;67232;50.096;8.716;2023-03-17T17:59:48;15.40;62.60
75161;DHT22;67232;50.096;8.716;2023-03-17T18:02:16;15.30;63.50
75161;DHT22;67232;50.096;8.716;2023-03-17T18:04:41;15.30;63.40